Aeroporto :
LOGIN :

Iscrizione | Disclaimer

   EN    FR    IT 

 










Sommario :    VFR   VFR Marginale   IFR   IFR Intensivo   IFR Molto Intensivo
Visibilità : 
Base nubi : 
>= 8 km
>= 3000ft
5 / 8 km
1000 / 3000 ft
1500m / 5 km
500 / 1000 ft
800 / 1500m
200 / 500 ft
< 800m
< 200 ft
Simboli :   Temporali  Nebbia  Neve Forte  Precipitazioni Forti  Vento > 20 kt
SIGMETs :   Varie  Temporali  Ghiacco  Turbolenza  Onda orograficha  Ceneri Vulcaniche






- Altitudine del aeroporto : 2265 ft
- Codice IATA : CZL


DABC - Mohamed Boudiaf Int. Constantine

ULTIMO METAR :
  • 031900Z 34007KT 8000 -RA SCT010 FEW020TCU BKN023 09/08 Q1014

METARs OBSOLETI :
  • 031830Z 34008KT 8000 -RA SCT010 FEW020CB BKN023 09/08 Q1014
  • 031800Z 34009KT 8000 -RA SCT010 FEW020CB BKN023 09/08 Q1013
  • 031730Z 04003KT 8000 -RA SCT020 FEW023CB BKN026 09/08 Q1013
  • 031700Z 05007KT 8000 -RA SCT020 FEW023CB BKN026 09/07 Q1012
  • 031630Z 31004KT 8000 SCT020 FEW023CB BKN026 09/08 Q1012

TAF TAF DABC
Valido dal 03 a 18 ore il 04 a 18 ore UTC


031700Z 0318/0418 04008KT 9999 FEW016 SCT026 BKN030
TEMPO 0318/0324 FEW020CB
PROB30
TEMPO 0318/0322 02015G25KT 4000 -TSRA



MetMap, La meteo Aeronautica in un colpo d'occhio ! - Copyright ORBIFLY Dicembre 2007 - Disclaimer

ORBIFLY MET'MAP TEAM :

Programmazione e sviluppo : Alexandra Zaïnal
Concezione : Baudouin d'Aumeries
Aiuto per la programmazione : Marc-Olivier Méhu
Supporto tecnico e logistico : Manuel Goepfert
Aiuto per la traduzione : Arnaldo La Scala

Contatto : metmap@orbifly.com




FONTI E CREDITI :

   NOAA